DLH56L EDDG-EDDC
Flight info
| Callsign | DLH56L |
|---|---|
| Flight time | 1h 11m |
| Altitude | 26000 |
| Route | OSN2C OSN L980 SAS DCT ABGUS Z94 GALMA Z21 RIVSA DCT |
| Aircraft | A21N/M-SDE2E3FGHIRWXY/LB1 |
Departure
| Time | 2026-04-14 13:34 |
|---|---|
| Airport | Münster Osnabrück Airport (EDDG) |
Arrival
| Time | 2026-04-14 14:46 |
|---|---|
| Airport | Dresden Airport (EDDC) |
| Time | Latitude | Longitude | Altitude | Speed | Heading |
|---|---|---|---|---|---|
| 2026-04-14 13:02 | 52.13270 | 7.69216 | 169 ft | 0 kts | 330° |
| 2026-04-14 13:02 | 52.13271 | 7.69216 | 170 ft | 0 kts | 330° |
| 2026-04-14 13:03 | 52.13270 | 7.69216 | 169 ft | 0 kts | 330° |
| 2026-04-14 13:27 | 52.13271 | 7.69216 | 169 ft | 0 kts | 330° |
| 2026-04-14 13:30 | 52.13288 | 7.69203 | 169 ft | 5 kts | 339° |
| 2026-04-14 13:30 | 52.13326 | 7.69189 | 168 ft | 6 kts | 8° |
| 2026-04-14 13:31 | 52.13346 | 7.69206 | 168 ft | 2 kts | 36° |
| 2026-04-14 13:31 | 52.13370 | 7.69228 | 168 ft | 5 kts | 20° |
| 2026-04-14 13:31 | 52.13404 | 7.69234 | 168 ft | 5 kts | 4° |
| 2026-04-14 13:31 | 52.13436 | 7.69244 | 169 ft | 5 kts | 21° |
| 2026-04-14 13:32 | 52.13463 | 7.69304 | 170 ft | 9 kts | 68° |
| 2026-04-14 13:32 | 52.13490 | 7.69427 | 170 ft | 15 kts | 71° |
| 2026-04-14 13:32 | 52.13530 | 7.69619 | 170 ft | 21 kts | 71° |
| 2026-04-14 13:32 | 52.13575 | 7.69838 | 168 ft | 14 kts | 71° |
| 2026-04-14 13:33 | 52.13617 | 7.69988 | 169 ft | 14 kts | 47° |
| 2026-04-14 13:33 | 52.13710 | 7.70026 | 167 ft | 15 kts | 344° |
| 2026-04-14 13:33 | 52.13769 | 7.69916 | 170 ft | 14 kts | 276° |
| 2026-04-14 13:33 | 52.13691 | 7.69502 | 174 ft | 51 kts | 248° |
| 2026-04-14 13:34 | 52.13155 | 7.66944 | 452 ft | 167 kts | 252° |
| 2026-04-14 13:34 | 52.12552 | 7.65136 | 733 ft | 197 kts | 226° |
| 2026-04-14 13:34 | 52.11254 | 7.64176 | 972 ft | 215 kts | 189° |
| 2026-04-14 13:35 | 52.09771 | 7.64529 | 1210 ft | 224 kts | 153° |
| 2026-04-14 13:35 | 52.08457 | 7.66113 | 1765 ft | 243 kts | 140° |
| 2026-04-14 13:35 | 52.07225 | 7.68017 | 2703 ft | 242 kts | 133° |
| 2026-04-14 13:35 | 52.06354 | 7.70350 | 3536 ft | 250 kts | 107° |
| 2026-04-14 13:36 | 52.06322 | 7.73258 | 3909 ft | 271 kts | 73° |
| 2026-04-14 13:36 | 52.06984 | 7.76170 | 4664 ft | 277 kts | 66° |
| 2026-04-14 13:36 | 52.07756 | 7.79064 | 5508 ft | 282 kts | 66° |
| 2026-04-14 13:36 | 52.08537 | 7.82017 | 6068 ft | 286 kts | 66° |
| 2026-04-14 13:37 | 52.09308 | 7.85011 | 6583 ft | 288 kts | 66° |
| 2026-04-14 13:37 | 52.10071 | 7.88031 | 7091 ft | 290 kts | 66° |
| 2026-04-14 13:37 | 52.10833 | 7.91082 | 7592 ft | 293 kts | 66° |
| 2026-04-14 13:37 | 52.11598 | 7.94167 | 8100 ft | 295 kts | 67° |
| 2026-04-14 13:38 | 52.12366 | 7.97278 | 8617 ft | 298 kts | 67° |
| 2026-04-14 13:38 | 52.13141 | 8.00428 | 9146 ft | 301 kts | 67° |
| 2026-04-14 13:38 | 52.13923 | 8.03610 | 9691 ft | 304 kts | 67° |
| 2026-04-14 13:38 | 52.14710 | 8.06822 | 10202 ft | 307 kts | 67° |
| 2026-04-14 13:39 | 52.15505 | 8.10071 | 10690 ft | 310 kts | 67° |
| 2026-04-14 13:39 | 52.16304 | 8.13342 | 11180 ft | 312 kts | 67° |
| 2026-04-14 13:39 | 52.17111 | 8.16646 | 11678 ft | 315 kts | 67° |
| 2026-04-14 13:39 | 52.17909 | 8.19926 | 12173 ft | 317 kts | 67° |
| 2026-04-14 13:40 | 52.18725 | 8.23277 | 12692 ft | 319 kts | 67° |
| 2026-04-14 13:40 | 52.19546 | 8.26659 | 13219 ft | 322 kts | 66° |
| 2026-04-14 13:40 | 52.20372 | 8.30065 | 13746 ft | 325 kts | 66° |
| 2026-04-14 13:40 | 52.21204 | 8.33505 | 14249 ft | 327 kts | 66° |
| 2026-04-14 13:41 | 52.22042 | 8.36971 | 14731 ft | 330 kts | 66° |
| 2026-04-14 13:41 | 52.22887 | 8.40460 | 15219 ft | 333 kts | 66° |
| 2026-04-14 13:41 | 52.23741 | 8.43994 | 15725 ft | 336 kts | 66° |
| 2026-04-14 13:41 | 52.24600 | 8.47551 | 16231 ft | 339 kts | 66° |
| 2026-04-14 13:42 | 52.25471 | 8.51137 | 16745 ft | 341 kts | 66° |
| 2026-04-14 13:42 | 52.26352 | 8.54750 | 17267 ft | 344 kts | 66° |
| 2026-04-14 13:42 | 52.27244 | 8.58399 | 17799 ft | 347 kts | 66° |
| 2026-04-14 13:42 | 52.28145 | 8.62067 | 18339 ft | 350 kts | 67° |
| 2026-04-14 13:43 | 52.29057 | 8.65768 | 18831 ft | 353 kts | 66° |
| 2026-04-14 13:43 | 52.29974 | 8.69498 | 19314 ft | 355 kts | 66° |
| 2026-04-14 13:43 | 52.30896 | 8.73257 | 19803 ft | 358 kts | 66° |
| 2026-04-14 13:43 | 52.31825 | 8.77063 | 20304 ft | 363 kts | 66° |
| 2026-04-14 13:44 | 52.32766 | 8.80932 | 20813 ft | 370 kts | 67° |
| 2026-04-14 13:44 | 52.33721 | 8.84870 | 21331 ft | 376 kts | 66° |
| 2026-04-14 13:44 | 52.34688 | 8.88872 | 21851 ft | 381 kts | 67° |
| 2026-04-14 13:44 | 52.35665 | 8.92928 | 22396 ft | 385 kts | 67° |
| 2026-04-14 13:45 | 52.36651 | 8.97024 | 22939 ft | 389 kts | 67° |
| 2026-04-14 13:45 | 52.37658 | 9.01155 | 23493 ft | 393 kts | 67° |
| 2026-04-14 13:45 | 52.38675 | 9.05320 | 24003 ft | 395 kts | 67° |
| 2026-04-14 13:45 | 52.39700 | 9.09511 | 24471 ft | 398 kts | 67° |
| 2026-04-14 13:46 | 52.40720 | 9.13675 | 24947 ft | 399 kts | 67° |
| 2026-04-14 13:46 | 52.41770 | 9.17948 | 25445 ft | 400 kts | 67° |
| 2026-04-14 13:46 | 52.42810 | 9.22177 | 25939 ft | 401 kts | 67° |
| 2026-04-14 13:46 | 52.43855 | 9.26412 | 26440 ft | 401 kts | 67° |
| 2026-04-14 13:47 | 52.44903 | 9.30642 | 26937 ft | 400 kts | 67° |
| 2026-04-14 13:47 | 52.45937 | 9.34800 | 27461 ft | 398 kts | 67° |
| 2026-04-14 13:47 | 52.46997 | 9.39047 | 27996 ft | 396 kts | 67° |
| 2026-04-14 13:47 | 52.48042 | 9.43218 | 28548 ft | 394 kts | 67° |
| 2026-04-14 13:48 | 52.49068 | 9.47299 | 29066 ft | 391 kts | 67° |
| 2026-04-14 13:48 | 52.50103 | 9.51397 | 29619 ft | 387 kts | 67° |
| 2026-04-14 13:48 | 52.51131 | 9.55447 | 30184 ft | 382 kts | 67° |
| 2026-04-14 13:48 | 52.52146 | 9.59442 | 30668 ft | 376 kts | 67° |
| 2026-04-14 13:49 | 52.53141 | 9.63385 | 31060 ft | 373 kts | 67° |
| 2026-04-14 13:49 | 52.54135 | 9.67352 | 31188 ft | 379 kts | 67° |
| 2026-04-14 13:49 | 52.55146 | 9.71400 | 31190 ft | 387 kts | 67° |
| 2026-04-14 13:50 | 52.57222 | 9.79717 | 31181 ft | 395 kts | 67° |
| 2026-04-14 13:50 | 52.59307 | 9.88083 | 31190 ft | 396 kts | 67° |
| 2026-04-14 13:51 | 52.61402 | 9.96474 | 31183 ft | 397 kts | 67° |
| 2026-04-14 13:51 | 52.63504 | 10.04884 | 31187 ft | 398 kts | 67° |
| 2026-04-14 13:52 | 52.65641 | 10.13282 | 31182 ft | 397 kts | 67° |
| 2026-04-14 13:52 | 52.67786 | 10.21674 | 31176 ft | 397 kts | 67° |
| 2026-04-14 13:53 | 52.69929 | 10.30074 | 31171 ft | 398 kts | 67° |
| 2026-04-14 13:53 | 52.72074 | 10.38492 | 31157 ft | 398 kts | 67° |
| 2026-04-14 13:54 | 52.74217 | 10.46920 | 31155 ft | 399 kts | 67° |
| 2026-04-14 13:54 | 52.76361 | 10.55364 | 31148 ft | 399 kts | 67° |
| 2026-04-14 13:55 | 52.78505 | 10.63817 | 31151 ft | 399 kts | 67° |
| 2026-04-14 13:55 | 52.80652 | 10.72279 | 31149 ft | 399 kts | 67° |
| 2026-04-14 13:56 | 52.82795 | 10.80744 | 31148 ft | 399 kts | 67° |
| 2026-04-14 13:56 | 52.84936 | 10.89225 | 31146 ft | 400 kts | 67° |
| 2026-04-14 13:57 | 52.87077 | 10.97719 | 31157 ft | 400 kts | 67° |
| 2026-04-14 13:57 | 52.88572 | 11.06530 | 31142 ft | 398 kts | 86° |
| 2026-04-14 13:57 | 52.88547 | 11.11096 | 31141 ft | 396 kts | 99° |
| 2026-04-14 13:58 | 52.87926 | 11.15507 | 31142 ft | 394 kts | 112° |
| 2026-04-14 13:58 | 52.86715 | 11.19584 | 31159 ft | 397 kts | 127° |
| 2026-04-14 13:58 | 52.84965 | 11.23109 | 31152 ft | 399 kts | 139° |
| 2026-04-14 13:59 | 52.80548 | 11.28842 | 31144 ft | 410 kts | 149° |
| 2026-04-14 13:59 | 52.75673 | 11.34033 | 31153 ft | 424 kts | 150° |
| 2026-04-14 14:00 | 52.70656 | 11.39358 | 31152 ft | 439 kts | 149° |
| 2026-04-14 14:00 | 52.65449 | 11.45042 | 31150 ft | 453 kts | 149° |
| 2026-04-14 14:01 | 52.60141 | 11.50911 | 31140 ft | 466 kts | 148° |
| 2026-04-14 14:01 | 52.54773 | 11.56847 | 31135 ft | 468 kts | 148° |
| 2026-04-14 14:02 | 52.49380 | 11.62787 | 31148 ft | 466 kts | 149° |
| 2026-04-14 14:02 | 52.43985 | 11.68700 | 31149 ft | 466 kts | 149° |
| 2026-04-14 14:03 | 52.38586 | 11.74595 | 31147 ft | 467 kts | 149° |
| 2026-04-14 14:03 | 52.33177 | 11.80484 | 31146 ft | 467 kts | 149° |
| 2026-04-14 14:04 | 52.27765 | 11.86360 | 31140 ft | 467 kts | 149° |
| 2026-04-14 14:04 | 52.22348 | 11.92223 | 31144 ft | 467 kts | 149° |
| 2026-04-14 14:05 | 52.16925 | 11.98074 | 31150 ft | 468 kts | 149° |
| 2026-04-14 14:05 | 52.11487 | 12.03925 | 31153 ft | 469 kts | 149° |
| 2026-04-14 14:06 | 52.06044 | 12.09765 | 31151 ft | 469 kts | 149° |
| 2026-04-14 14:06 | 52.00589 | 12.15599 | 31154 ft | 469 kts | 149° |
| 2026-04-14 14:07 | 51.95135 | 12.21417 | 31151 ft | 469 kts | 149° |
| 2026-04-14 14:07 | 51.89680 | 12.27219 | 31143 ft | 469 kts | 149° |
| 2026-04-14 14:08 | 51.84218 | 12.33009 | 31149 ft | 470 kts | 148° |
| 2026-04-14 14:08 | 51.78854 | 12.38686 | 30606 ft | 453 kts | 149° |
| 2026-04-14 14:08 | 51.77110 | 12.40527 | 30131 ft | 453 kts | 149° |
| 2026-04-14 14:09 | 51.74469 | 12.43310 | 29273 ft | 453 kts | 149° |
| 2026-04-14 14:09 | 51.71828 | 12.46087 | 28455 ft | 453 kts | 149° |
| 2026-04-14 14:09 | 51.69201 | 12.48846 | 27616 ft | 446 kts | 149° |
| 2026-04-14 14:09 | 51.66641 | 12.51536 | 26826 ft | 433 kts | 149° |
| 2026-04-14 14:10 | 51.64149 | 12.54150 | 26066 ft | 423 kts | 149° |
| 2026-04-14 14:10 | 51.61713 | 12.56702 | 25324 ft | 413 kts | 149° |
| 2026-04-14 14:10 | 51.59328 | 12.59196 | 24596 ft | 404 kts | 149° |
| 2026-04-14 14:10 | 51.57000 | 12.61626 | 24131 ft | 394 kts | 149° |
| 2026-04-14 14:11 | 51.54722 | 12.64000 | 23767 ft | 387 kts | 149° |
| 2026-04-14 14:11 | 51.52479 | 12.66334 | 23358 ft | 381 kts | 149° |
| 2026-04-14 14:11 | 51.50273 | 12.68628 | 22949 ft | 376 kts | 148° |
| 2026-04-14 14:11 | 51.48092 | 12.70892 | 22428 ft | 372 kts | 148° |
| 2026-04-14 14:12 | 51.45930 | 12.73136 | 21641 ft | 369 kts | 149° |
| 2026-04-14 14:12 | 51.43789 | 12.75354 | 20862 ft | 364 kts | 149° |
| 2026-04-14 14:12 | 51.41680 | 12.77538 | 20108 ft | 359 kts | 148° |
| 2026-04-14 14:12 | 51.39598 | 12.79691 | 19367 ft | 354 kts | 149° |
| 2026-04-14 14:13 | 51.37541 | 12.81816 | 18654 ft | 350 kts | 148° |
| 2026-04-14 14:13 | 51.35502 | 12.83920 | 17878 ft | 347 kts | 149° |
| 2026-04-14 14:13 | 51.33485 | 12.86001 | 17086 ft | 344 kts | 149° |
| 2026-04-14 14:13 | 51.31494 | 12.88071 | 16322 ft | 347 kts | 147° |
| 2026-04-14 14:14 | 51.29531 | 12.90671 | 15581 ft | 383 kts | 135° |
| 2026-04-14 14:14 | 51.27758 | 12.94062 | 14954 ft | 408 kts | 128° |
| 2026-04-14 14:14 | 51.26102 | 12.97790 | 14515 ft | 414 kts | 124° |
| 2026-04-14 14:14 | 51.24543 | 13.01658 | 14223 ft | 413 kts | 123° |
| 2026-04-14 14:15 | 51.23045 | 13.05549 | 13927 ft | 411 kts | 122° |
| 2026-04-14 14:15 | 51.21565 | 13.09438 | 13609 ft | 409 kts | 122° |
| 2026-04-14 14:15 | 51.20087 | 13.13305 | 13275 ft | 407 kts | 122° |
| 2026-04-14 14:15 | 51.18604 | 13.17144 | 12982 ft | 405 kts | 123° |
| 2026-04-14 14:16 | 51.17142 | 13.20890 | 12628 ft | 390 kts | 123° |
| 2026-04-14 14:16 | 51.15721 | 13.24495 | 12244 ft | 378 kts | 123° |
| 2026-04-14 14:16 | 51.14338 | 13.27976 | 11863 ft | 367 kts | 123° |
| 2026-04-14 14:17 | 51.12049 | 13.34955 | 11098 ft | 349 kts | 104° |
| 2026-04-14 14:17 | 51.11904 | 13.38736 | 10813 ft | 339 kts | 82° |
| 2026-04-14 14:17 | 51.12546 | 13.42257 | 10636 ft | 325 kts | 69° |
| 2026-04-14 14:17 | 51.13418 | 13.45520 | 10459 ft | 318 kts | 66° |
| 2026-04-14 14:18 | 51.14330 | 13.48722 | 10298 ft | 317 kts | 66° |
| 2026-04-14 14:18 | 51.15250 | 13.51916 | 10112 ft | 317 kts | 66° |
| 2026-04-14 14:18 | 51.16168 | 13.55106 | 9943 ft | 316 kts | 66° |
| 2026-04-14 14:18 | 51.17083 | 13.58288 | 9758 ft | 315 kts | 66° |
| 2026-04-14 14:19 | 51.17992 | 13.61462 | 9500 ft | 314 kts | 66° |
| 2026-04-14 14:19 | 51.18897 | 13.64622 | 9238 ft | 313 kts | 66° |
| 2026-04-14 14:19 | 51.19784 | 13.67724 | 8979 ft | 312 kts | 66° |
| 2026-04-14 14:19 | 51.20680 | 13.70864 | 8716 ft | 310 kts | 66° |
| 2026-04-14 14:20 | 51.21569 | 13.73985 | 8463 ft | 309 kts | 65° |
| 2026-04-14 14:20 | 51.22458 | 13.77109 | 8263 ft | 308 kts | 65° |
| 2026-04-14 14:20 | 51.23340 | 13.80214 | 8146 ft | 307 kts | 65° |
| 2026-04-14 14:20 | 51.24222 | 13.83321 | 8014 ft | 307 kts | 65° |
| 2026-04-14 14:21 | 51.24922 | 13.86520 | 7889 ft | 306 kts | 79° |
| 2026-04-14 14:21 | 51.25060 | 13.89876 | 7764 ft | 304 kts | 93° |
| 2026-04-14 14:21 | 51.24713 | 13.93184 | 7563 ft | 300 kts | 115° |
| 2026-04-14 14:21 | 51.23489 | 13.95745 | 7214 ft | 288 kts | 147° |
| 2026-04-14 14:22 | 51.21684 | 13.96832 | 6863 ft | 274 kts | 180° |
| 2026-04-14 14:22 | 51.19886 | 13.96192 | 6446 ft | 264 kts | 213° |
| 2026-04-14 14:22 | 51.18682 | 13.94121 | 5970 ft | 252 kts | 248° |
| 2026-04-14 14:22 | 51.18490 | 13.91469 | 5438 ft | 238 kts | 284° |
| 2026-04-14 14:23 | 51.19095 | 13.89101 | 4958 ft | 230 kts | 292° |
| 2026-04-14 14:23 | 51.19283 | 13.86665 | 4437 ft | 221 kts | 264° |
| 2026-04-14 14:23 | 51.18798 | 13.84405 | 3914 ft | 217 kts | 235° |
| 2026-04-14 14:23 | 51.17762 | 13.82690 | 3420 ft | 213 kts | 225° |
| 2026-04-14 14:24 | 51.16661 | 13.81162 | 2900 ft | 206 kts | 224° |
| 2026-04-14 14:24 | 51.15577 | 13.79718 | 1989 ft | 209 kts | 218° |
| 2026-04-14 14:24 | 51.14382 | 13.78226 | 930 ft | 212 kts | 226° |
| 2026-04-14 14:24 | 51.13379 | 13.76743 | 861 ft | 178 kts | 222° |
| 2026-04-14 14:25 | 51.12577 | 13.75631 | 1158 ft | 135 kts | 226° |
| 2026-04-14 14:25 | 51.11746 | 13.74779 | 1053 ft | 156 kts | 214° |
| 2026-04-14 14:25 | 51.10837 | 13.73856 | 1769 ft | 156 kts | 216° |
| 2026-04-14 14:25 | 51.09857 | 13.73039 | 2385 ft | 167 kts | 195° |
| 2026-04-14 14:26 | 51.08695 | 13.73325 | 2969 ft | 177 kts | 150° |
| 2026-04-14 14:26 | 51.07921 | 13.74806 | 3590 ft | 177 kts | 107° |
| 2026-04-14 14:26 | 51.07951 | 13.76696 | 4182 ft | 173 kts | 66° |
| 2026-04-14 14:26 | 51.08437 | 13.78455 | 4751 ft | 177 kts | 64° |
| 2026-04-14 14:27 | 51.08937 | 13.80351 | 5048 ft | 196 kts | 64° |
| 2026-04-14 14:27 | 51.09500 | 13.82475 | 5043 ft | 213 kts | 64° |
| 2026-04-14 14:27 | 51.10041 | 13.84537 | 5025 ft | 194 kts | 65° |
| 2026-04-14 14:27 | 51.10539 | 13.86442 | 5010 ft | 180 kts | 65° |
| 2026-04-14 14:28 | 51.10961 | 13.88251 | 5008 ft | 171 kts | 78° |
| 2026-04-14 14:28 | 51.10743 | 13.90064 | 5023 ft | 173 kts | 123° |
| 2026-04-14 14:28 | 51.09854 | 13.91392 | 5031 ft | 181 kts | 148° |
| 2026-04-14 14:28 | 51.08738 | 13.92407 | 5027 ft | 189 kts | 154° |
| 2026-04-14 14:29 | 51.07505 | 13.93211 | 5009 ft | 193 kts | 174° |
| 2026-04-14 14:29 | 51.06248 | 13.92830 | 5016 ft | 180 kts | 214° |
| 2026-04-14 14:29 | 51.05317 | 13.91616 | 5017 ft | 172 kts | 227° |
| 2026-04-14 14:29 | 51.04460 | 13.90295 | 5025 ft | 169 kts | 227° |
| 2026-04-14 14:30 | 51.03634 | 13.89002 | 5007 ft | 164 kts | 228° |
| 2026-04-14 14:30 | 51.02829 | 13.87752 | 5018 ft | 160 kts | 227° |
| 2026-04-14 14:30 | 51.02043 | 13.86535 | 5009 ft | 155 kts | 227° |
| 2026-04-14 14:30 | 51.01317 | 13.85313 | 5012 ft | 149 kts | 239° |
| 2026-04-14 14:31 | 51.00823 | 13.83917 | 5018 ft | 142 kts | 248° |
| 2026-04-14 14:31 | 51.00458 | 13.82496 | 5006 ft | 136 kts | 259° |
| 2026-04-14 14:31 | 51.00378 | 13.81064 | 4999 ft | 125 kts | 272° |
| 2026-04-14 14:31 | 51.00421 | 13.79561 | 5176 ft | 148 kts | 275° |
| 2026-04-14 14:32 | 51.00488 | 13.77852 | 5563 ft | 162 kts | 274° |
| 2026-04-14 14:32 | 51.00562 | 13.76018 | 6008 ft | 171 kts | 274° |
| 2026-04-14 14:32 | 51.00640 | 13.74080 | 6441 ft | 179 kts | 273° |
| 2026-04-14 14:32 | 51.00721 | 13.72079 | 6864 ft | 184 kts | 273° |
| 2026-04-14 14:33 | 51.00803 | 13.70026 | 7267 ft | 189 kts | 273° |
| 2026-04-14 14:33 | 51.00997 | 13.68007 | 7834 ft | 178 kts | 292° |
| 2026-04-14 14:33 | 51.01996 | 13.66972 | 7811 ft | 204 kts | 349° |
| 2026-04-14 14:33 | 51.03463 | 13.67395 | 7091 ft | 228 kts | 21° |
| 2026-04-14 14:34 | 51.06806 | 13.68116 | 4007 ft | 255 kts | 27° |
| 2026-04-14 14:34 | 51.08176 | 13.69711 | 3308 ft | 236 kts | 40° |
| 2026-04-14 14:34 | 51.09386 | 13.71353 | 2437 ft | 226 kts | 38° |
| 2026-04-14 14:35 | 51.10637 | 13.72933 | 1591 ft | 221 kts | 41° |
| 2026-04-14 14:35 | 51.11588 | 13.74332 | 2083 ft | 159 kts | 43° |
| 2026-04-14 14:35 | 51.12442 | 13.75601 | 2372 ft | 179 kts | 41° |
| 2026-04-14 14:35 | 51.13405 | 13.76969 | 2842 ft | 191 kts | 41° |
| 2026-04-14 14:36 | 51.14382 | 13.78359 | 3275 ft | 181 kts | 41° |
| 2026-04-14 14:36 | 51.15292 | 13.79658 | 3673 ft | 172 kts | 41° |
| 2026-04-14 14:36 | 51.16180 | 13.80924 | 4076 ft | 171 kts | 41° |
| 2026-04-14 14:36 | 51.17069 | 13.82190 | 4467 ft | 172 kts | 41° |
| 2026-04-14 14:37 | 51.17961 | 13.83461 | 4863 ft | 173 kts | 41° |
| 2026-04-14 14:37 | 51.18694 | 13.84978 | 5000 ft | 175 kts | 69° |
| 2026-04-14 14:37 | 51.18757 | 13.86874 | 4939 ft | 174 kts | 107° |
| 2026-04-14 14:37 | 51.18071 | 13.88421 | 4879 ft | 174 kts | 137° |
| 2026-04-14 14:38 | 51.17179 | 13.89700 | 4870 ft | 175 kts | 140° |
| 2026-04-14 14:38 | 51.16194 | 13.90860 | 4812 ft | 173 kts | 156° |
| 2026-04-14 14:38 | 51.15042 | 13.91100 | 4736 ft | 171 kts | 192° |
| 2026-04-14 14:38 | 51.13917 | 13.90429 | 4709 ft | 171 kts | 206° |
| 2026-04-14 14:39 | 51.12857 | 13.89566 | 4718 ft | 172 kts | 210° |
| 2026-04-14 14:39 | 51.11832 | 13.88603 | 4761 ft | 171 kts | 213° |
| 2026-04-14 14:39 | 51.10841 | 13.87563 | 4673 ft | 170 kts | 214° |
| 2026-04-14 14:39 | 51.09860 | 13.86509 | 4564 ft | 170 kts | 215° |
| 2026-04-14 14:40 | 51.08883 | 13.85440 | 4447 ft | 170 kts | 216° |
| 2026-04-14 14:40 | 51.07928 | 13.84374 | 4410 ft | 170 kts | 216° |
| 2026-04-14 14:40 | 51.06973 | 13.83283 | 4392 ft | 170 kts | 217° |
| 2026-04-14 14:40 | 51.06022 | 13.82168 | 4365 ft | 170 kts | 217° |
| 2026-04-14 14:41 | 51.05081 | 13.81037 | 4347 ft | 170 kts | 218° |
| 2026-04-14 14:41 | 51.04159 | 13.79867 | 4258 ft | 169 kts | 223° |
| 2026-04-14 14:41 | 51.03393 | 13.78464 | 4140 ft | 168 kts | 237° |
| 2026-04-14 14:41 | 51.02885 | 13.76804 | 3944 ft | 166 kts | 254° |
| 2026-04-14 14:42 | 51.02744 | 13.75041 | 3610 ft | 162 kts | 272° |
| 2026-04-14 14:42 | 51.02971 | 13.73305 | 3189 ft | 161 kts | 291° |
| 2026-04-14 14:42 | 51.03529 | 13.71796 | 2799 ft | 157 kts | 309° |
| 2026-04-14 14:42 | 51.04330 | 13.70696 | 2535 ft | 149 kts | 325° |
| 2026-04-14 14:43 | 51.05188 | 13.69775 | 2170 ft | 149 kts | 324° |
| 2026-04-14 14:43 | 51.06048 | 13.68906 | 1975 ft | 147 kts | 333° |
| 2026-04-14 14:43 | 51.07045 | 13.68627 | 1868 ft | 151 kts | 8° |
| 2026-04-14 14:43 | 51.07969 | 13.69380 | 1538 ft | 150 kts | 42° |
| 2026-04-14 14:44 | 51.08759 | 13.70457 | 1441 ft | 149 kts | 40° |
| 2026-04-14 14:44 | 51.09559 | 13.71524 | 1462 ft | 151 kts | 38° |
| 2026-04-14 14:44 | 51.10381 | 13.72576 | 1212 ft | 150 kts | 38° |
| 2026-04-14 14:44 | 51.11179 | 13.73622 | 1054 ft | 148 kts | 41° |
| 2026-04-14 14:45 | 51.11940 | 13.74735 | 949 ft | 155 kts | 42° |
| 2026-04-14 14:45 | 51.12774 | 13.75905 | 771 ft | 154 kts | 40° |
| 2026-04-14 14:45 | 51.13517 | 13.76917 | 735 ft | 119 kts | 41° |
| 2026-04-14 14:45 | 51.14009 | 13.77586 | 724 ft | 67 kts | 40° |
| 2026-04-14 14:46 | 51.14224 | 13.77882 | 720 ft | 15 kts | 43° |
| 2026-04-14 14:46 | 51.14268 | 13.77949 | 722 ft | 14 kts | 43° |
| 2026-04-14 14:46 | 51.14340 | 13.78057 | 719 ft | 15 kts | 43° |
| 2026-04-14 14:46 | 51.14344 | 13.78184 | 716 ft | 13 kts | 118° |
| 2026-04-14 14:47 | 51.14293 | 13.78308 | 715 ft | 13 kts | 130° |
| 2026-04-14 14:47 | 51.14240 | 13.78362 | 712 ft | 4 kts | 198° |
| 2026-04-14 14:47 | 51.14218 | 13.78346 | 714 ft | 4 kts | 205° |
| 2026-04-14 14:47 | 51.14156 | 13.78271 | 718 ft | 16 kts | 223° |
| 2026-04-14 14:48 | 51.14073 | 13.78153 | 716 ft | 16 kts | 221° |
| 2026-04-14 14:48 | 51.13989 | 13.78038 | 718 ft | 16 kts | 220° |
| 2026-04-14 14:48 | 51.13894 | 13.77908 | 719 ft | 20 kts | 220° |
| 2026-04-14 14:48 | 51.13794 | 13.77772 | 722 ft | 17 kts | 221° |
| 2026-04-14 14:49 | 51.13709 | 13.77654 | 724 ft | 15 kts | 221° |
| 2026-04-14 14:49 | 51.13637 | 13.77556 | 728 ft | 12 kts | 220° |
| 2026-04-14 14:49 | 51.13576 | 13.77473 | 727 ft | 11 kts | 220° |
| 2026-04-14 14:49 | 51.13521 | 13.77398 | 729 ft | 10 kts | 220° |
| 2026-04-14 14:50 | 51.13472 | 13.77330 | 734 ft | 12 kts | 221° |
| 2026-04-14 14:50 | 51.13388 | 13.77213 | 732 ft | 20 kts | 221° |
| 2026-04-14 14:50 | 51.13281 | 13.77066 | 736 ft | 19 kts | 220° |
| 2026-04-14 14:50 | 51.13185 | 13.76935 | 742 ft | 16 kts | 220° |
| 2026-04-14 14:51 | 51.13110 | 13.76830 | 743 ft | 13 kts | 221° |
| 2026-04-14 14:51 | 51.13044 | 13.76739 | 748 ft | 12 kts | 221° |
| 2026-04-14 14:51 | 51.12990 | 13.76665 | 750 ft | 9 kts | 220° |
| 2026-04-14 14:51 | 51.12943 | 13.76600 | 750 ft | 9 kts | 220° |
| 2026-04-14 14:52 | 51.12888 | 13.76525 | 748 ft | 12 kts | 221° |
| 2026-04-14 14:52 | 51.12823 | 13.76435 | 752 ft | 13 kts | 221° |
| 2026-04-14 14:52 | 51.12749 | 13.76334 | 749 ft | 15 kts | 221° |
| 2026-04-14 14:52 | 51.12688 | 13.76303 | 753 ft | 7 kts | 147° |
| 2026-04-14 14:53 | 51.12657 | 13.76351 | 752 ft | 6 kts | 134° |
| 2026-04-14 14:53 | 51.12642 | 13.76378 | 753 ft | 1 kts | 131° |
| 2026-04-14 14:53 | 51.12637 | 13.76386 | 754 ft | 1 kts | 131° |
| 2026-04-14 14:53 | 51.12636 | 13.76388 | 756 ft | 0 kts | 130° |